createdAt,value
2018-06-16T00:01:17.174Z,99.90
2018-06-16T00:03:46.827Z,99.90
2018-06-16T00:06:16.535Z,99.90
2018-06-16T00:08:46.251Z,99.90
2018-06-16T00:11:15.983Z,99.90
2018-06-16T00:13:45.692Z,99.90
2018-06-16T00:16:15.360Z,99.90
2018-06-16T00:18:45.094Z,99.90
2018-06-16T00:21:14.689Z,99.90
2018-06-16T00:23:44.367Z,99.90
2018-06-16T00:26:14.048Z,99.90
2018-06-16T00:28:43.749Z,99.90
2018-06-16T00:31:13.469Z,99.90
2018-06-16T00:33:43.487Z,99.90
2018-06-16T00:36:13.186Z,99.90
2018-06-16T00:38:42.897Z,99.90
2018-06-16T00:41:12.584Z,99.90
2018-06-16T00:43:42.244Z,99.90
2018-06-16T00:46:12.064Z,99.90
2018-06-16T00:48:41.766Z,99.90
2018-06-16T00:51:11.417Z,99.90
2018-06-16T00:53:41.089Z,99.90
2018-06-16T00:56:10.758Z,99.90
2018-06-16T00:58:40.507Z,99.90
2018-06-16T01:01:10.242Z,99.90
2018-06-16T01:03:39.928Z,99.90
2018-06-16T01:06:09.612Z,99.90
2018-06-16T01:08:39.323Z,99.90
2018-06-16T01:11:09.009Z,99.90
2018-06-16T01:13:38.707Z,99.90
2018-06-16T01:16:08.404Z,99.90
2018-06-16T01:18:38.104Z,99.90
2018-06-16T01:21:08.166Z,99.90
2018-06-16T01:23:37.797Z,99.90
2018-06-16T01:26:07.471Z,99.90
2018-06-16T01:28:37.245Z,99.90
2018-06-16T01:31:07.075Z,99.90
2018-06-16T01:33:36.876Z,99.90
2018-06-16T01:36:06.591Z,99.90
2018-06-16T01:38:36.352Z,99.90
2018-06-16T01:41:06.079Z,99.90
2018-06-16T01:43:35.957Z,99.90
2018-06-16T01:46:05.496Z,99.90
2018-06-16T01:48:35.168Z,99.90
2018-06-16T01:51:04.926Z,99.90
2018-06-16T01:53:34.664Z,99.90
2018-06-16T01:56:04.517Z,99.90
2018-06-16T01:58:34.118Z,99.90
2018-06-16T02:01:03.905Z,99.90
2018-06-16T02:06:02.664Z,99.90
2018-06-16T02:08:32.382Z,99.90
2018-06-16T02:11:01.981Z,99.90
2018-06-16T02:13:31.628Z,99.90
2018-06-16T02:16:01.305Z,99.90
2018-06-16T02:18:30.984Z,99.90
2018-06-16T02:21:00.686Z,99.90
2018-06-16T02:23:30.300Z,99.90
2018-06-16T02:26:00.236Z,99.90
2018-06-16T02:28:30.114Z,99.90
2018-06-16T02:30:59.891Z,99.90
2018-06-16T02:33:29.562Z,99.90
2018-06-16T02:35:59.297Z,99.90
2018-06-16T02:38:28.969Z,99.90
2018-06-16T02:40:58.700Z,99.90
2018-06-16T02:43:28.381Z,99.90
2018-06-16T02:48:27.089Z,99.90
2018-06-16T02:50:56.974Z,99.90
2018-06-16T02:53:34.745Z,99.90
2018-06-16T02:56:04.629Z,99.90
2018-06-16T02:58:34.343Z,99.90
2018-06-16T03:01:04.016Z,99.90
2018-06-16T03:03:33.674Z,99.90
2018-06-16T03:06:03.544Z,99.90
2018-06-16T03:08:33.234Z,99.90
2018-06-16T03:11:02.916Z,99.90
2018-06-16T03:13:32.564Z,99.90
2018-06-16T03:16:02.338Z,99.90
2018-06-16T03:18:32.026Z,99.90
2018-06-16T03:21:02.804Z,99.90
2018-06-16T03:23:32.502Z,99.90
2018-06-16T03:26:02.368Z,99.90
2018-06-16T03:28:32.079Z,99.90
2018-06-16T03:31:01.776Z,99.90
2018-06-16T03:36:00.529Z,99.90
2018-06-16T03:38:30.209Z,99.90
2018-06-16T03:40:59.906Z,99.90
2018-06-16T03:43:29.632Z,99.90
2018-06-16T03:45:59.334Z,99.90
2018-06-16T03:48:29.060Z,99.90
2018-06-16T03:50:58.659Z,99.90
2018-06-16T03:53:28.376Z,99.90
2018-06-16T03:55:57.932Z,99.90
2018-06-16T03:58:27.747Z,99.90
2018-06-16T04:00:57.444Z,99.90
2018-06-16T04:03:27.132Z,99.90
2018-06-16T04:05:56.893Z,99.90
2018-06-16T04:08:26.594Z,99.90
2018-06-16T04:10:56.264Z,99.90
2018-06-16T04:13:25.916Z,99.90
2018-06-16T04:15:55.716Z,99.90
2018-06-16T04:18:25.420Z,99.90
2018-06-16T04:20:55.153Z,99.90
2018-06-16T04:23:24.792Z,99.90
2018-06-16T04:25:54.391Z,99.90
2018-06-16T04:28:24.109Z,99.90
2018-06-16T04:30:53.797Z,99.90
2018-06-16T04:33:23.410Z,99.90
2018-06-16T04:35:53.062Z,99.90
2018-06-16T04:38:22.746Z,99.90
2018-06-16T04:40:52.412Z,99.90
2018-06-16T04:43:22.092Z,99.90
2018-06-16T04:45:51.734Z,99.90
2018-06-16T04:48:21.440Z,99.90
2018-06-16T04:50:51.102Z,99.90
2018-06-16T04:53:20.787Z,99.90
2018-06-16T04:58:19.499Z,99.90
2018-06-16T05:00:49.326Z,99.90
2018-06-16T05:03:19.033Z,99.90
2018-06-16T05:05:48.747Z,99.90
2018-06-16T05:08:18.401Z,99.90
2018-06-16T05:10:48.116Z,99.90
2018-06-16T05:13:17.869Z,99.90
2018-06-16T05:15:47.583Z,99.90
2018-06-16T05:18:17.497Z,99.90
2018-06-16T05:20:47.241Z,99.90
2018-06-16T05:23:16.905Z,99.90
2018-06-16T05:25:46.695Z,99.90
2018-06-16T05:28:16.350Z,99.90
2018-06-16T05:30:45.982Z,99.90
2018-06-16T05:33:15.721Z,99.90
2018-06-16T05:35:45.364Z,99.90
2018-06-16T05:38:15.021Z,99.90
2018-06-16T05:40:44.712Z,99.90
2018-06-16T05:43:14.437Z,99.90
2018-06-16T05:45:44.561Z,99.90
2018-06-16T05:48:14.176Z,99.90
2018-06-16T05:50:43.824Z,99.90
2018-06-16T05:53:13.714Z,99.90
2018-06-16T05:55:43.418Z,99.90
2018-06-16T05:58:13.054Z,99.90
2018-06-16T06:00:42.718Z,99.90
2018-06-16T06:03:12.392Z,99.90
2018-06-16T06:05:42.098Z,99.90
2018-06-16T06:08:11.838Z,99.90
2018-06-16T06:10:41.548Z,99.90
2018-06-16T06:13:11.283Z,99.90
2018-06-16T06:15:41.050Z,99.90
2018-06-16T06:18:10.758Z,99.90
2018-06-16T06:20:40.490Z,99.90
2018-06-16T06:23:10.137Z,99.90
2018-06-16T06:25:39.790Z,99.90
2018-06-16T06:28:09.387Z,99.90
2018-06-16T06:30:39.018Z,99.90
2018-06-16T06:33:08.676Z,99.90
2018-06-16T06:35:38.375Z,99.90
2018-06-16T06:38:08.016Z,99.90
2018-06-16T06:40:37.777Z,99.90
2018-06-16T06:43:07.472Z,99.90
2018-06-16T06:45:37.113Z,99.90
2018-06-16T06:48:06.929Z,99.90
2018-06-16T06:50:36.795Z,99.90
2018-06-16T06:53:06.839Z,99.90
2018-06-16T06:55:36.522Z,99.90
2018-06-16T06:58:06.305Z,99.90
2018-06-16T07:00:36.088Z,99.90
2018-06-16T07:03:05.712Z,99.90
2018-06-16T07:08:05.133Z,99.90
2018-06-16T07:10:34.897Z,99.90
2018-06-16T07:13:04.698Z,99.90
2018-06-16T07:15:34.468Z,99.90
2018-06-16T07:18:04.339Z,99.90
2018-06-16T07:20:34.126Z,99.90
2018-06-16T07:23:03.776Z,99.90
2018-06-16T07:25:33.852Z,99.90
2018-06-16T07:30:33.930Z,99.70
2018-06-16T07:33:03.657Z,99.90
2018-06-16T07:35:33.421Z,99.90
2018-06-16T07:38:03.346Z,99.90
2018-06-16T07:40:33.076Z,99.90
2018-06-16T07:43:02.850Z,99.90
2018-06-16T07:45:32.519Z,99.30
2018-06-16T07:48:02.295Z,99.90
2018-06-16T07:50:31.944Z,97.70
2018-06-16T07:53:01.685Z,97.50
2018-06-16T07:55:31.276Z,98.40
2018-06-16T07:58:00.989Z,98.00
2018-06-16T08:00:30.710Z,97.50
2018-06-16T08:03:00.446Z,95.30
2018-06-16T08:05:30.112Z,96.60
2018-06-16T08:07:59.829Z,98.80
2018-06-16T08:10:29.472Z,95.20
2018-06-16T08:12:59.131Z,94.20
2018-06-16T08:15:28.843Z,94.40
2018-06-16T08:17:58.528Z,97.40
2018-06-16T08:20:28.200Z,94.90
2018-06-16T08:22:57.897Z,96.00
2018-06-16T08:25:27.630Z,94.00
2018-06-16T08:27:57.311Z,94.50
2018-06-16T08:30:27.003Z,92.20
2018-06-16T08:32:56.666Z,93.70
2018-06-16T08:35:26.354Z,92.40
2018-06-16T08:37:56.032Z,93.30
2018-06-16T08:40:28.621Z,93.30
2018-06-16T08:42:58.271Z,88.70
2018-06-16T08:45:28.044Z,93.40
2018-06-16T08:47:57.702Z,92.20
2018-06-16T08:50:27.424Z,91.70
2018-06-16T08:52:57.052Z,86.80
2018-06-16T08:55:26.829Z,90.30
2018-06-16T08:57:56.515Z,90.60
2018-06-16T09:00:26.277Z,92.30
2018-06-16T09:02:56.048Z,90.30
2018-06-16T09:05:25.744Z,88.80
2018-06-16T09:07:55.404Z,87.40
2018-06-16T09:10:25.079Z,90.70
2018-06-16T09:12:54.698Z,91.20
2018-06-16T09:15:24.445Z,90.90
2018-06-16T09:17:54.122Z,90.00
2018-06-16T09:20:23.834Z,90.10
2018-06-16T09:22:53.732Z,90.50
2018-06-16T09:25:23.390Z,87.30
2018-06-16T09:27:53.043Z,89.00
2018-06-16T09:30:22.742Z,86.70
2018-06-16T09:32:52.421Z,86.10
2018-06-16T09:35:22.163Z,88.10
2018-06-16T09:37:51.851Z,90.20
2018-06-16T09:40:21.541Z,86.80
2018-06-16T09:42:51.175Z,90.60
2018-06-16T09:45:20.844Z,87.30
2018-06-16T09:47:50.544Z,82.80
2018-06-16T09:50:20.214Z,83.80
2018-06-16T09:52:49.942Z,83.90
2018-06-16T09:55:22.583Z,89.30
2018-06-16T09:57:52.320Z,86.60
2018-06-16T10:00:23.874Z,87.60
2018-06-16T10:02:53.831Z,88.80
2018-06-16T10:05:23.525Z,85.00
2018-06-16T10:07:53.197Z,86.70
2018-06-16T10:10:22.903Z,84.60
2018-06-16T10:12:52.520Z,90.50
2018-06-16T10:15:22.157Z,84.50
2018-06-16T10:17:51.907Z,86.60
2018-06-16T10:20:21.552Z,85.60
2018-06-16T10:22:51.206Z,84.40
2018-06-16T10:25:20.796Z,82.20
2018-06-16T10:27:50.464Z,82.30
2018-06-16T10:30:20.171Z,88.60
2018-06-16T10:32:49.756Z,89.40
2018-06-16T10:35:19.359Z,88.00
2018-06-16T10:37:49.046Z,83.70
2018-06-16T10:40:18.747Z,85.70
2018-06-16T10:45:17.535Z,82.80
2018-06-16T10:47:47.355Z,89.40
2018-06-16T10:50:17.039Z,87.60
2018-06-16T10:52:46.774Z,84.70
2018-06-16T10:55:17.677Z,87.10
2018-06-16T10:57:47.403Z,83.40
2018-06-16T11:00:17.129Z,82.40
2018-06-16T11:02:46.808Z,84.70
2018-06-16T11:05:16.478Z,85.60
2018-06-16T11:07:46.222Z,82.80
2018-06-16T11:10:15.880Z,90.10
2018-06-16T11:12:45.534Z,81.80
2018-06-16T11:15:15.256Z,80.90
2018-06-16T11:17:44.890Z,85.10
2018-06-16T11:20:14.665Z,78.50
2018-06-16T11:22:44.368Z,81.20
2018-06-16T11:25:14.121Z,76.50
2018-06-16T11:27:43.876Z,77.60
2018-06-16T11:30:13.545Z,82.80
2018-06-16T11:32:43.441Z,80.70
2018-06-16T11:35:13.195Z,83.50
2018-06-16T11:37:42.930Z,83.20
2018-06-16T11:40:12.618Z,76.20
2018-06-16T11:42:42.372Z,82.40
2018-06-16T11:45:12.186Z,79.60
2018-06-16T11:47:41.864Z,79.30
2018-06-16T11:50:11.609Z,83.10
2018-06-16T11:52:41.284Z,81.00
2018-06-16T11:55:10.966Z,82.20
2018-06-16T11:57:40.724Z,76.00
2018-06-16T12:00:10.402Z,71.80
2018-06-16T12:02:40.339Z,72.20
2018-06-16T12:05:10.000Z,74.90
2018-06-16T12:07:39.718Z,73.30
2018-06-16T12:10:09.360Z,76.80
2018-06-16T12:12:39.042Z,78.40
2018-06-16T12:15:08.720Z,81.20
2018-06-16T12:17:38.491Z,76.10
2018-06-16T12:20:08.174Z,77.50
2018-06-16T12:22:37.790Z,72.20
2018-06-16T12:25:07.557Z,73.50
2018-06-16T12:27:37.224Z,71.50
2018-06-16T12:30:07.140Z,73.20
2018-06-16T12:32:36.912Z,69.70
2018-06-16T12:35:06.585Z,67.70
2018-06-16T12:37:36.273Z,70.50
2018-06-16T12:40:06.063Z,71.80
2018-06-16T12:42:35.797Z,75.50
2018-06-16T12:45:05.608Z,74.20
2018-06-16T12:47:35.274Z,76.50
2018-06-16T12:50:04.976Z,68.40
2018-06-16T12:52:34.620Z,74.70
2018-06-16T12:55:04.327Z,70.90
2018-06-16T12:57:34.004Z,66.60
2018-06-16T13:00:03.994Z,65.30
2018-06-16T13:02:33.648Z,68.20
2018-06-16T13:05:03.348Z,65.90
2018-06-16T13:07:33.027Z,67.50
2018-06-16T13:10:02.787Z,66.00
2018-06-16T13:12:32.625Z,67.70
2018-06-16T13:15:02.273Z,72.60
2018-06-16T13:17:31.966Z,69.50
2018-06-16T13:20:01.757Z,72.00
2018-06-16T13:22:31.436Z,64.30
2018-06-16T13:25:01.193Z,69.00
2018-06-16T13:27:30.838Z,70.50
2018-06-16T13:30:00.481Z,67.10
2018-06-16T13:34:59.224Z,61.60
2018-06-16T13:37:28.866Z,66.90
2018-06-16T13:39:58.472Z,63.30
2018-06-16T13:42:28.242Z,63.40
2018-06-16T13:44:57.946Z,66.50
2018-06-16T13:47:27.613Z,64.30
2018-06-16T13:49:57.309Z,62.80
2018-06-16T13:52:27.009Z,62.80
2018-06-16T13:54:56.702Z,62.00
2018-06-16T13:57:26.338Z,64.60
2018-06-16T13:59:56.064Z,65.60
2018-06-16T14:02:25.785Z,63.20
2018-06-16T14:04:55.504Z,60.30
2018-06-16T14:07:25.184Z,59.80
2018-06-16T14:09:54.897Z,66.90
2018-06-16T14:12:24.569Z,60.80
2018-06-16T14:14:54.296Z,60.00
2018-06-16T14:17:24.032Z,65.60
2018-06-16T14:19:53.676Z,65.80
2018-06-16T14:22:23.383Z,61.50
2018-06-16T14:24:53.063Z,60.80
2018-06-16T14:27:22.782Z,58.30
2018-06-16T14:29:52.479Z,58.90
2018-06-16T14:32:22.165Z,59.70
2018-06-16T14:34:51.860Z,60.20
2018-06-16T14:37:21.548Z,58.90
2018-06-16T14:39:51.273Z,58.40
2018-06-16T14:42:20.928Z,60.50
2018-06-16T14:44:50.637Z,59.40
2018-06-16T14:47:20.357Z,59.70
2018-06-16T14:49:49.989Z,58.70
2018-06-16T14:52:19.711Z,57.80
2018-06-16T14:54:49.486Z,59.30
2018-06-16T14:57:19.213Z,59.60
2018-06-16T14:59:48.940Z,55.60
2018-06-16T15:02:18.597Z,57.20
2018-06-16T15:04:48.466Z,56.40
2018-06-16T15:07:18.130Z,56.00
2018-06-16T15:09:47.827Z,57.60
2018-06-16T15:12:17.464Z,61.00
2018-06-16T15:14:47.150Z,59.40
2018-06-16T15:17:16.808Z,55.00
2018-06-16T15:19:46.574Z,56.60
2018-06-16T15:22:16.253Z,56.30
2018-06-16T15:24:45.860Z,56.20
2018-06-16T15:27:15.604Z,56.40
2018-06-16T15:29:45.373Z,56.80
2018-06-16T15:32:15.023Z,56.70
2018-06-16T15:34:44.708Z,55.90
2018-06-16T15:37:14.383Z,56.30
2018-06-16T15:39:44.074Z,56.80
2018-06-16T15:42:13.816Z,57.10
2018-06-16T15:44:43.473Z,55.80
2018-06-16T15:47:13.151Z,57.40
2018-06-16T15:49:42.849Z,57.80
2018-06-16T15:52:12.734Z,57.80
2018-06-16T15:54:42.378Z,60.80
2018-06-16T15:57:12.175Z,56.00
2018-06-16T15:59:41.844Z,56.70
2018-06-16T16:02:11.663Z,54.90
2018-06-16T16:04:41.275Z,56.90
2018-06-16T16:07:11.174Z,58.00
2018-06-16T16:09:40.877Z,58.50
2018-06-16T16:12:10.673Z,56.30
2018-06-16T16:17:09.583Z,59.20
2018-06-16T16:19:39.258Z,60.60
2018-06-16T16:22:08.931Z,61.60
2018-06-16T16:24:38.663Z,57.20
2018-06-16T16:27:09.121Z,56.20
2018-06-16T16:29:41.106Z,57.50
2018-06-16T16:32:12.333Z,56.90
2018-06-16T16:34:42.048Z,57.30
2018-06-16T16:37:12.451Z,58.10
2018-06-16T16:39:42.206Z,59.00
2018-06-16T16:42:11.876Z,56.60
2018-06-16T16:44:41.557Z,59.20
2018-06-16T16:47:11.247Z,57.60
2018-06-16T16:49:40.960Z,58.50
2018-06-16T16:52:10.757Z,59.80
2018-06-16T16:54:40.557Z,59.50
2018-06-16T16:57:10.256Z,57.90
2018-06-16T16:59:40.196Z,57.80
2018-06-16T17:02:09.906Z,58.20
2018-06-16T17:04:39.622Z,58.60
2018-06-16T17:07:09.328Z,58.30
2018-06-16T17:09:39.077Z,58.40
2018-06-16T17:12:08.808Z,58.10
2018-06-16T17:14:38.478Z,56.40
2018-06-16T17:17:08.174Z,55.40
2018-06-16T17:19:37.875Z,56.90
2018-06-16T17:22:07.650Z,55.60
2018-06-16T17:24:37.352Z,57.60
2018-06-16T17:27:07.109Z,60.20
2018-06-16T17:29:36.747Z,59.90
2018-06-16T17:32:06.526Z,62.00
2018-06-16T17:34:36.241Z,60.60
2018-06-16T17:37:06.022Z,61.80
2018-06-16T17:39:35.818Z,63.10
2018-06-16T17:42:05.529Z,64.60
2018-06-16T17:44:35.318Z,63.60
2018-06-16T17:47:05.081Z,63.70
2018-06-16T17:49:34.846Z,65.90
2018-06-16T17:52:04.698Z,67.80
2018-06-16T17:54:34.359Z,66.40
2018-06-16T17:57:04.154Z,67.50
2018-06-16T17:59:33.918Z,69.20
2018-06-16T18:02:03.753Z,71.50
2018-06-16T18:04:33.499Z,72.80
2018-06-16T18:07:03.237Z,72.20
2018-06-16T18:09:33.864Z,72.90
2018-06-16T18:12:03.893Z,72.50
2018-06-16T18:14:33.549Z,72.50
2018-06-16T18:17:03.316Z,73.40
2018-06-16T18:19:33.087Z,73.50
2018-06-16T18:22:02.983Z,73.80
2018-06-16T18:24:32.694Z,75.60
2018-06-16T18:27:02.597Z,76.60
2018-06-16T18:29:32.441Z,78.40
2018-06-16T18:32:02.414Z,78.80
2018-06-16T18:34:32.545Z,79.40
2018-06-16T18:37:03.169Z,80.50
2018-06-16T18:39:32.953Z,80.80
2018-06-16T18:42:02.954Z,80.50
2018-06-16T18:44:32.805Z,81.30
2018-06-16T18:47:03.968Z,82.70
2018-06-16T18:49:34.672Z,82.20
2018-06-16T18:52:05.328Z,83.50
2018-06-16T18:54:35.522Z,83.30
2018-06-16T18:57:05.429Z,83.80
2018-06-16T18:59:35.207Z,84.20
2018-06-16T19:02:04.891Z,84.10
2018-06-16T19:04:35.343Z,84.90
2018-06-16T19:07:05.215Z,85.80
2018-06-16T19:09:34.960Z,86.30
2018-06-16T19:12:05.413Z,86.80
2018-06-16T19:14:35.120Z,88.30
2018-06-16T19:17:04.817Z,89.30
2018-06-16T19:19:36.356Z,88.20
2018-06-16T19:22:07.053Z,88.60
2018-06-16T19:24:37.433Z,89.40
2018-06-16T19:27:09.086Z,89.60
2018-06-16T19:29:39.305Z,89.00
2018-06-16T19:32:09.291Z,90.10
2018-06-16T19:34:39.483Z,90.30
2018-06-16T19:37:10.027Z,90.30
2018-06-16T19:39:40.040Z,91.20
2018-06-16T19:42:09.896Z,90.50
2018-06-16T19:44:40.547Z,90.90
2018-06-16T19:47:12.281Z,91.30
2018-06-16T19:49:43.908Z,91.30
2018-06-16T19:52:13.960Z,91.10
2018-06-16T19:54:43.980Z,91.60
2018-06-16T19:57:14.387Z,91.50
2018-06-16T19:59:44.521Z,92.00
2018-06-16T20:02:17.255Z,92.10
2018-06-16T20:04:47.558Z,92.30
2018-06-16T20:07:17.470Z,92.60
2018-06-16T20:09:47.450Z,92.60
2018-06-16T20:12:17.262Z,92.90
2018-06-16T20:14:47.013Z,92.70
2018-06-16T20:17:16.803Z,92.40
2018-06-16T20:19:46.589Z,92.80
2018-06-16T20:22:18.265Z,92.90
2018-06-16T20:24:48.959Z,93.00
2018-06-16T20:27:18.916Z,93.50
2018-06-16T20:29:49.274Z,93.40
2018-06-16T20:32:19.892Z,93.70
2018-06-16T20:34:50.124Z,93.80
2018-06-16T20:37:20.195Z,93.70
2018-06-16T20:39:50.914Z,94.00
2018-06-16T20:42:21.240Z,93.70
2018-06-16T20:44:51.114Z,93.70
2018-06-16T20:47:21.232Z,94.20
2018-06-16T20:49:51.006Z,93.90
2018-06-16T20:52:21.291Z,93.70
2018-06-16T20:54:51.418Z,93.80
2018-06-16T20:57:21.454Z,93.80
2018-06-16T20:59:51.248Z,93.70
2018-06-16T21:02:21.171Z,93.50
2018-06-16T21:04:50.909Z,93.60
2018-06-16T21:07:20.691Z,93.80
2018-06-16T21:09:50.467Z,93.70
2018-06-16T21:12:20.244Z,93.50
2018-06-16T21:14:49.974Z,93.50
2018-06-16T21:17:19.712Z,93.70
2018-06-16T21:19:49.346Z,93.60
2018-06-16T21:22:18.992Z,93.70
2018-06-16T21:24:48.695Z,93.70
2018-06-16T21:27:18.342Z,93.40
2018-06-16T21:29:48.122Z,93.10
2018-06-16T21:32:17.822Z,93.20
2018-06-16T21:34:47.444Z,92.90
2018-06-16T21:37:17.148Z,93.10
2018-06-16T21:39:46.847Z,93.20
2018-06-16T21:42:16.493Z,93.30
2018-06-16T21:44:46.148Z,93.00
2018-06-16T21:47:15.824Z,93.10
2018-06-16T21:49:45.487Z,93.20
2018-06-16T21:52:15.248Z,93.40
2018-06-16T21:54:44.987Z,93.60
2018-06-16T21:59:43.732Z,94.30
2018-06-16T22:02:13.405Z,93.80
2018-06-16T22:04:43.100Z,93.80
2018-06-16T22:07:12.771Z,94.60
2018-06-16T22:09:42.405Z,94.70
2018-06-16T22:12:12.159Z,95.10
2018-06-16T22:14:41.852Z,95.20
2018-06-16T22:17:11.511Z,97.10
2018-06-16T22:19:41.238Z,97.90
2018-06-16T22:22:10.954Z,98.40
2018-06-16T22:24:40.649Z,98.90
2018-06-16T22:27:10.331Z,99.70
2018-06-16T22:29:40.028Z,99.90
2018-06-16T22:32:09.761Z,99.90
2018-06-16T22:34:39.461Z,99.90
2018-06-16T22:37:09.160Z,99.90
2018-06-16T22:39:38.870Z,99.90
2018-06-16T22:42:08.560Z,99.90
2018-06-16T22:44:38.240Z,99.90
2018-06-16T22:47:07.931Z,99.90
2018-06-16T22:49:37.660Z,99.90
2018-06-16T22:52:07.420Z,99.90
2018-06-16T22:54:37.075Z,99.90
2018-06-16T22:57:06.795Z,99.90
2018-06-16T22:59:36.503Z,99.90
2018-06-16T23:02:06.172Z,99.90
2018-06-16T23:04:35.795Z,99.90
2018-06-16T23:07:05.493Z,99.90
2018-06-16T23:09:35.209Z,99.60
2018-06-16T23:12:04.818Z,99.40
2018-06-16T23:14:34.521Z,99.60
2018-06-16T23:17:04.280Z,99.70
2018-06-16T23:19:33.960Z,99.50
2018-06-16T23:22:03.661Z,98.80
2018-06-16T23:24:33.414Z,98.90
2018-06-16T23:27:03.036Z,99.40
2018-06-16T23:29:32.707Z,98.50
2018-06-16T23:32:02.704Z,98.80
2018-06-16T23:34:32.468Z,98.80
2018-06-16T23:37:02.163Z,98.90
2018-06-16T23:39:31.872Z,99.20
2018-06-16T23:42:01.733Z,99.10
2018-06-16T23:44:31.446Z,99.20
2018-06-16T23:47:01.065Z,99.00
2018-06-16T23:49:30.722Z,98.80
2018-06-16T23:52:00.552Z,99.50
2018-06-16T23:54:31.318Z,99.40
2018-06-16T23:57:01.083Z,99.90
2018-06-16T23:59:30.749Z,99.80
